Time;durP1;ratioP1;P1;durP2;ratioP2;P2;SDS_P1;SDS_P2;PMS_P1;PMS_P2;Temp;Humidity;BMP_temperature;BMP_pressure;BME280_temperature;BME280_humidity;BME280_pressure;Samples;Min_cycle;Max_cycle;Signal;HPM_P1;HPM_P2
2023/10/05 00:00:31;;;;;;;10.20;4.82;;;;;;;;;;2073800;28;20478;-56
2023/10/05 00:01:24;;;;;;;10.35;5.25;;;;;;;;;;2073898;28;20038;-56
2023/10/05 00:02:25;;;;;;;9.25;5.05;;;;;;;;;;2075220;28;20038;-56
2023/10/05 00:03:25;;;;;;;8.32;4.55;;;;;;;;;;2075244;28;20041;-56
2023/10/05 00:04:39;;;;;;;9.93;4.70;;;;;;;;;;2075223;28;20042;-56
2023/10/05 00:05:44;;;;;;;8.15;5.00;;;;;;;;;;2075524;28;20458;-56
2023/10/05 00:06:45;;;;;;;8.10;4.63;;;;;;;;;;2074535;28;20046;-56
2023/10/05 00:07:46;;;;;;;9.63;4.93;;;;;;;;;;2075332;28;20033;-56
2023/10/05 00:08:50;;;;;;;10.57;5.00;;;;;;;;;;2075302;28;20060;-56
2023/10/05 00:09:50;;;;;;;8.85;5.03;;;;;;;;;;2075260;28;20037;-56
2023/10/05 00:10:51;;;;;;;11.18;5.60;;;;;;;;;;2075083;28;20042;-55
2023/10/05 00:11:55;;;;;;;8.75;4.90;;;;;;;;;;2075241;28;20065;-56
2023/10/05 00:13:00;;;;;;;9.82;4.93;;;;;;;;;;2074810;28;20478;-56
2023/10/05 00:14:05;;;;;;;9.77;5.30;;;;;;;;;;2075266;28;20034;-56
2023/10/05 00:16:07;;;;;;;9.60;5.38;;;;;;;;;;2075904;28;20124;-56
2023/10/05 00:17:10;;;;;;;10.75;5.28;;;;;;;;;;2076912;28;20049;-56
2023/10/05 00:18:18;;;;;;;9.00;4.72;;;;;;;;;;2076536;28;20049;-55
2023/10/05 00:19:21;;;;;;;13.25;5.05;;;;;;;;;;2076769;28;20034;-56
2023/10/05 00:20:25;;;;;;;9.43;5.20;;;;;;;;;;2076837;28;20044;-57
2023/10/05 00:21:26;;;;;;;8.68;5.00;;;;;;;;;;2076059;28;20045;-56
2023/10/05 00:22:26;;;;;;;8.50;4.53;;;;;;;;;;2075388;28;20030;-56
2023/10/05 00:23:27;;;;;;;10.45;4.93;;;;;;;;;;2075201;28;20497;-56
2023/10/05 00:24:35;;;;;;;8.70;4.72;;;;;;;;;;2075285;28;20053;-57
2023/10/05 00:25:37;;;;;;;9.50;4.60;;;;;;;;;;2075351;28;20406;-57
2023/10/05 00:26:38;;;;;;;7.30;4.47;;;;;;;;;;2075190;28;20049;-56
2023/10/05 00:27:39;;;;;;;8.70;4.28;;;;;;;;;;2075069;28;20050;-56
2023/10/05 00:28:44;;;;;;;11.55;4.82;;;;;;;;;;2074696;28;20042;-56
2023/10/05 00:29:57;;;;;;;8.30;4.40;;;;;;;;;;2075153;28;20029;-56
2023/10/05 00:31:00;;;;;;;7.47;4.35;;;;;;;;;;2075504;28;20481;-56
2023/10/05 00:32:01;;;;;;;13.55;5.20;;;;;;;;;;2075102;28;20038;-56
2023/10/05 00:33:04;;;;;;;8.32;4.38;;;;;;;;;;2074093;28;20047;-56
2023/10/05 00:34:08;;;;;;;8.40;4.00;;;;;;;;;;2073777;28;20049;-56
2023/10/05 00:36:20;;;;;;;9.43;4.30;;;;;;;;;;2074740;28;20044;-55
2023/10/05 00:37:22;;;;;;;8.40;4.30;;;;;;;;;;2074165;28;20037;-56
2023/10/05 00:38:24;;;;;;;8.38;4.57;;;;;;;;;;2073724;28;20050;-56
2023/10/05 00:39:25;;;;;;;10.07;5.03;;;;;;;;;;2075048;28;20049;-56
2023/10/05 00:40:38;;;;;;;11.98;4.80;;;;;;;;;;2074326;28;20045;-56
2023/10/05 00:41:39;;;;;;;10.65;4.47;;;;;;;;;;2074606;28;20041;-56
2023/10/05 00:42:40;;;;;;;13.20;4.90;;;;;;;;;;2074620;28;20038;-56
2023/10/05 00:43:41;;;;;;;11.93;5.18;;;;;;;;;;2074860;28;20381;-56
2023/10/05 00:44:43;;;;;;;11.05;4.88;;;;;;;;;;2074267;28;20046;-56
2023/10/05 00:45:47;;;;;;;9.35;4.90;;;;;;;;;;2074647;28;20053;-57
2023/10/05 00:46:50;;;;;;;9.13;4.28;;;;;;;;;;2074879;28;20029;-56
2023/10/05 00:47:52;;;;;;;8.20;4.72;;;;;;;;;;2074407;28;20045;-56
2023/10/05 00:50:12;;;;;;;7.78;4.40;;;;;;;;;;2073644;28;20054;-56
2023/10/05 00:51:13;;;;;;;9.30;3.85;;;;;;;;;;2074473;28;20053;-56
2023/10/05 00:52:18;;;;;;;8.95;4.40;;;;;;;;;;2074787;28;20029;-56
2023/10/05 00:53:19;;;;;;;9.00;4.78;;;;;;;;;;2073614;28;20134;-56
2023/10/05 00:54:28;;;;;;;8.63;4.57;;;;;;;;;;2073285;28;20053;-56
2023/10/05 00:55:29;;;;;;;7.50;4.68;;;;;;;;;;2074505;28;20385;-56
2023/10/05 00:56:34;;;;;;;11.02;4.93;;;;;;;;;;2073619;28;20053;-56
2023/10/05 00:57:36;;;;;;;10.43;4.63;;;;;;;;;;2073574;28;20041;-56
2023/10/05 00:58:38;;;;;;;11.15;4.78;;;;;;;;;;2074629;28;20029;-56
2023/10/05 00:59:38;;;;;;;9.25;4.78;;;;;;;;;;2074867;28;20057;-56
2023/10/05 01:00:50;;;;;;;8.40;5.15;;;;;;;;;;2074013;28;20103;-56
2023/10/05 01:02:03;;;;;;;8.13;4.72;;;;;;;;;;2073694;28;20046;-55
2023/10/05 01:03:17;;;;;;;8.25;4.68;;;;;;;;;;2074739;28;20097;-56
2023/10/05 01:04:25;;;;;;;9.20;4.75;;;;;;;;;;2074720;28;20040;-56
2023/10/05 01:05:34;;;;;;;8.00;4.53;;;;;;;;;;2074592;28;20057;-56
2023/10/05 01:06:47;;;;;;;;;;;;;;;;;;2074093;28;20041;-56
2023/10/05 01:07:56;;;;;;;8.18;4.60;;;;;;;;;;2073542;28;19916;-56
2023/10/05 01:09:00;;;;;;;6.97;4.95;;;;;;;;;;2074219;28;20038;-56
2023/10/05 01:11:02;;;;;;;11.13;5.07;;;;;;;;;;2074807;28;20608;-56
2023/10/05 01:13:30;;;;;;;9.00;5.22;;;;;;;;;;2072898;28;20053;-56
2023/10/05 01:14:46;;;;;;;9.95;5.10;;;;;;;;;;2074880;28;20458;-56
2023/10/05 01:15:50;;;;;;;10.45;5.50;;;;;;;;;;2073343;28;20058;-56
2023/10/05 01:16:54;;;;;;;11.52;6.15;;;;;;;;;;2066000;28;20039;-56
2023/10/05 01:17:56;;;;;;;16.83;7.00;;;;;;;;;;2073317;28;20053;-56
2023/10/05 01:18:56;;;;;;;13.02;5.95;;;;;;;;;;2074687;28;20065;-56
2023/10/05 01:20:08;;;;;;;13.35;5.47;;;;;;;;;;2073398;28;20425;-56
2023/10/05 01:21:09;;;;;;;11.88;5.30;;;;;;;;;;2073732;28;20046;-56
2023/10/05 01:22:14;;;;;;;10.43;6.22;;;;;;;;;;2074091;28;20038;-56
2023/10/05 01:23:15;;;;;;;10.65;6.13;;;;;;;;;;2074240;28;20382;-55
2023/10/05 01:24:17;;;;;;;11.45;6.40;;;;;;;;;;2073192;28;20046;-55
2023/10/05 01:25:18;;;;;;;14.65;6.70;;;;;;;;;;2073875;28;20064;-55
2023/10/05 01:26:20;;;;;;;10.23;5.88;;;;;;;;;;2074579;28;20042;-55
2023/10/05 01:27:21;;;;;;;12.10;6.43;;;;;;;;;;2074429;28;20053;-55
2023/10/05 01:28:22;;;;;;;11.48;6.05;;;;;;;;;;2074756;28;20045;-56
2023/10/05 01:29:22;;;;;;;12.27;6.35;;;;;;;;;;2074574;28;20466;-56
2023/10/05 01:30:23;;;;;;;12.27;6.18;;;;;;;;;;2074437;28;20041;-55
2023/10/05 01:31:24;;;;;;;10.50;5.75;;;;;;;;;;2074279;28;20053;-56
2023/10/05 01:32:26;;;;;;;15.00;5.47;;;;;;;;;;2073711;28;20053;-55
2023/10/05 01:33:29;;;;;;;12.48;6.03;;;;;;;;;;2073992;28;20370;-56
2023/10/05 01:34:30;;;;;;;13.02;6.55;;;;;;;;;;2073505;28;20046;-56
2023/10/05 01:35:30;;;;;;;10.35;5.97;;;;;;;;;;2065269;28;20569;-56
2023/10/05 01:36:31;;;;;;;13.43;6.20;;;;;;;;;;2065732;28;20418;-55
2023/10/05 01:37:33;;;;;;;10.18;5.85;;;;;;;;;;2073623;28;20046;-55
2023/10/05 01:38:38;;;;;;;12.88;6.10;;;;;;;;;;2074471;28;20041;-55
2023/10/05 01:39:43;;;;;;;11.75;6.22;;;;;;;;;;2074205;28;20470;-55
2023/10/05 01:40:48;;;;;;;14.02;6.50;;;;;;;;;;2074721;28;20045;-55
2023/10/05 01:41:49;;;;;;;9.65;5.65;;;;;;;;;;2074488;28;20029;-56
2023/10/05 01:42:51;;;;;;;12.48;6.00;;;;;;;;;;2074138;28;20038;-56
2023/10/05 01:43:52;;;;;;;10.82;6.25;;;;;;;;;;2074477;28;20029;-56
2023/10/05 01:44:53;;;;;;;10.07;6.50;;;;;;;;;;2074170;28;20049;-56
2023/10/05 01:45:54;;;;;;;12.55;6.65;;;;;;;;;;2073302;28;20057;-56
2023/10/05 01:46:57;;;;;;;11.32;6.15;;;;;;;;;;2073160;28;20092;-55
2023/10/05 01:48:02;;;;;;;9.50;6.18;;;;;;;;;;2074549;28;20031;-56
2023/10/05 01:49:04;;;;;;;11.32;6.18;;;;;;;;;;2074106;28;20053;-56
2023/10/05 01:50:06;;;;;;;11.52;6.07;;;;;;;;;;2074425;28;20034;-58
2023/10/05 01:51:23;;;;;;;11.18;5.85;;;;;;;;;;2074476;28;20049;-56
2023/10/05 01:52:23;;;;;;;10.85;5.80;;;;;;;;;;2074352;28;20501;-56
2023/10/05 01:53:26;;;;;;;13.40;6.53;;;;;;;;;;2074381;28;20040;-55
2023/10/05 01:54:28;;;;;;;13.30;6.10;;;;;;;;;;2074013;28;20050;-56
2023/10/05 01:55:34;;;;;;;9.68;5.65;;;;;;;;;;2074341;28;20038;-55
2023/10/05 01:56:35;;;;;;;12.50;6.13;;;;;;;;;;2073808;28;20037;-55
2023/10/05 01:57:37;;;;;;;11.00;5.53;;;;;;;;;;2073502;28;20041;-56
2023/10/05 01:58:42;;;;;;;14.73;5.70;;;;;;;;;;2073219;28;20048;-56
2023/10/05 01:59:43;;;;;;;11.73;6.32;;;;;;;;;;2066118;28;20041;-55
2023/10/05 02:00:44;;;;;;;14.07;6.50;;;;;;;;;;2065852;28;20034;-55
2023/10/05 02:01:45;;;;;;;13.90;6.13;;;;;;;;;;2065294;28;20422;-56
2023/10/05 02:02:48;;;;;;;9.80;5.72;;;;;;;;;;2073639;28;20421;-55
2023/10/05 02:03:54;;;;;;;11.50;5.82;;;;;;;;;;2072791;28;20093;-55
2023/10/05 02:04:54;;;;;;;12.80;5.70;;;;;;;;;;2073799;28;20418;-57
2023/10/05 02:05:58;;;;;;;14.75;5.65;;;;;;;;;;2074173;28;20042;-56
2023/10/05 02:07:00;;;;;;;10.88;5.40;;;;;;;;;;2074180;28;20516;-56
2023/10/05 02:08:01;;;;;;;9.65;5.60;;;;;;;;;;2073929;28;20050;-57
2023/10/05 02:09:04;;;;;;;8.50;5.00;;;;;;;;;;2073671;28;20049;-56
2023/10/05 02:10:09;;;;;;;11.13;5.93;;;;;;;;;;2073675;28;20433;-56
2023/10/05 02:11:10;;;;;;;13.20;6.15;;;;;;;;;;2072977;28;20053;-56
2023/10/05 02:12:11;;;;;;;14.15;5.90;;;;;;;;;;2065512;28;20042;-56
2023/10/05 02:13:12;;;;;;;12.48;5.78;;;;;;;;;;2057460;28;20438;-56
2023/10/05 02:14:14;;;;;;;11.10;5.60;;;;;;;;;;2064884;28;20049;-56
2023/10/05 02:15:16;;;;;;;11.18;5.80;;;;;;;;;;2072734;28;20052;-56
2023/10/05 02:16:21;;;;;;;11.07;5.78;;;;;;;;;;2073170;28;20046;-55
2023/10/05 02:17:22;;;;;;;8.73;5.53;;;;;;;;;;2066332;28;20429;-56
2023/10/05 02:18:26;;;;;;;14.13;5.90;;;;;;;;;;2073682;28;20069;-56
2023/10/05 02:19:27;;;;;;;12.57;6.00;;;;;;;;;;2073879;28;20037;-55
2023/10/05 02:21:37;;;;;;;11.82;5.90;;;;;;;;;;2074085;28;20034;-56
2023/10/05 02:22:40;;;;;;;10.60;6.45;;;;;;;;;;2074265;28;20087;-55
2023/10/05 02:23:42;;;;;;;11.23;6.57;;;;;;;;;;2073955;28;20390;-55
2023/10/05 02:24:42;;;;;;;10.00;5.70;;;;;;;;;;2072930;28;20038;-56
2023/10/05 02:25:44;;;;;;;11.00;5.88;;;;;;;;;;2074080;28;20069;-56
2023/10/05 02:28:00;;;;;;;10.48;5.45;;;;;;;;;;2073825;28;20054;-56
2023/10/05 02:29:13;;;;;;;14.35;6.32;;;;;;;;;;2073023;28;20041;-56
2023/10/05 02:30:14;;;;;;;11.75;6.07;;;;;;;;;;2067111;28;20049;-56
2023/10/05 02:31:15;;;;;;;13.40;6.57;;;;;;;;;;2072921;28;20096;-55
2023/10/05 02:32:21;;;;;;;12.63;5.82;;;;;;;;;;2073886;28;20042;-56
2023/10/05 02:33:27;;;;;;;10.35;5.80;;;;;;;;;;2065139;28;20084;-56
2023/10/05 02:34:57;;;;;;;12.70;6.32;;;;;;;;;;2058292;28;20042;-55
2023/10/05 02:35:50;;;;;;;10.48;6.28;;;;;;;;;;2072668;28;20437;-56
2023/10/05 02:36:54;;;;;;;11.18;5.57;;;;;;;;;;2072895;28;20046;-56
2023/10/05 02:37:58;;;;;;;10.00;5.72;;;;;;;;;;2065470;28;20394;-56
2023/10/05 02:39:01;;;;;;;12.43;6.55;;;;;;;;;;2065424;28;20133;-56
2023/10/05 02:40:07;;;;;;;11.00;5.72;;;;;;;;;;2072563;28;20105;-56
2023/10/05 02:41:08;;;;;;;12.48;5.72;;;;;;;;;;2073746;28;20034;-56
2023/10/05 02:42:12;;;;;;;13.60;5.93;;;;;;;;;;2065420;28;20493;-56
2023/10/05 02:43:15;;;;;;;8.57;5.68;;;;;;;;;;2072543;28;20497;-56
2023/10/05 02:45:23;;;;;;;13.80;6.30;;;;;;;;;;2066106;28;20130;-56
2023/10/05 02:46:25;;;;;;;12.15;5.88;;;;;;;;;;2073414;28;20050;-56
2023/10/05 02:47:26;;;;;;;11.05;6.10;;;;;;;;;;2073361;28;20042;-56
2023/10/05 02:48:30;;;;;;;15.95;6.43;;;;;;;;;;2073020;28;20510;-56
2023/10/05 02:49:31;;;;;;;14.75;6.32;;;;;;;;;;2074050;28;20464;-56
2023/10/05 02:50:32;;;;;;;17.10;6.68;;;;;;;;;;2072703;28;20050;-56
2023/10/05 02:51:35;;;;;;;9.90;6.30;;;;;;;;;;2072347;28;20126;-56
2023/10/05 02:52:36;;;;;;;11.07;6.38;;;;;;;;;;2073692;28;20053;-56
2023/10/05 02:55:14;;;;;;;11.77;6.00;;;;;;;;;;2048496;29;20531;-56
2023/10/05 02:56:17;;;;;;;10.95;5.60;;;;;;;;;;2048342;29;20492;-56
2023/10/05 02:57:19;;;;;;;14.73;6.93;;;;;;;;;;2051873;28;20070;-56
2023/10/05 02:58:22;;;;;;;11.77;6.80;;;;;;;;;;2072787;28;20446;-56
2023/10/05 02:59:29;;;;;;;11.77;6.05;;;;;;;;;;2073868;28;20037;-56
2023/10/05 03:00:33;;;;;;;10.75;6.20;;;;;;;;;;2073304;28;20049;-56
2023/10/05 03:01:34;;;;;;;13.18;6.50;;;;;;;;;;2073250;28;20041;-56
2023/10/05 03:02:45;;;;;;;13.02;6.80;;;;;;;;;;2074146;28;20466;-56
2023/10/05 03:03:47;;;;;;;11.75;6.30;;;;;;;;;;2074104;28;20378;-56
2023/10/05 03:04:48;;;;;;;11.43;6.32;;;;;;;;;;2074145;28;20029;-56
2023/10/05 03:05:53;;;;;;;13.73;6.47;;;;;;;;;;2072672;28;20106;-56
2023/10/05 03:06:53;;;;;;;12.15;6.38;;;;;;;;;;2065274;28;20150;-56
2023/10/05 03:07:54;;;;;;;12.15;6.05;;;;;;;;;;2064206;28;20042;-56
2023/10/05 03:09:01;;;;;;;12.55;6.72;;;;;;;;;;2073280;28;20033;-56
2023/10/05 03:10:02;;;;;;;12.35;6.53;;;;;;;;;;2073278;28;20038;-55
2023/10/05 03:11:08;;;;;;;13.38;6.38;;;;;;;;;;2065531;28;20458;-56
2023/10/05 03:12:11;;;;;;;11.05;6.50;;;;;;;;;;2065173;28;20046;-56
2023/10/05 03:13:13;;;;;;;11.00;6.50;;;;;;;;;;2064846;28;20038;-56
2023/10/05 03:14:17;;;;;;;13.57;6.68;;;;;;;;;;2065158;28;20042;-56
2023/10/05 03:15:23;;;;;;;11.40;6.05;;;;;;;;;;2064507;28;20513;-58
2023/10/05 03:16:27;;;;;;;12.80;6.18;;;;;;;;;;2065616;28;20046;-56
2023/10/05 03:17:31;;;;;;;12.15;5.82;;;;;;;;;;2065477;28;20065;-57
2023/10/05 03:18:37;;;;;;;11.52;5.97;;;;;;;;;;2072906;28;20064;-56
2023/10/05 03:19:39;;;;;;;8.77;5.97;;;;;;;;;;2066015;28;20034;-56
2023/10/05 03:20:40;;;;;;;14.10;5.80;;;;;;;;;;2073199;28;20041;-56
2023/10/05 03:21:40;;;;;;;10.50;6.90;;;;;;;;;;2073770;28;20052;-56
2023/10/05 03:22:45;;;;;;;11.98;7.00;;;;;;;;;;2073863;28;20030;-56
2023/10/05 03:23:46;;;;;;;13.60;6.72;;;;;;;;;;2073131;28;20030;-56
2023/10/05 03:24:47;;;;;;;10.52;6.35;;;;;;;;;;2065078;28;20038;-55
2023/10/05 03:25:52;;;;;;;13.23;6.60;;;;;;;;;;2064765;28;20439;-56
2023/10/05 03:26:56;;;;;;;9.68;6.15;;;;;;;;;;2072308;28;20038;-56
2023/10/05 03:27:57;;;;;;;12.95;6.22;;;;;;;;;;2073734;28;20045;-56
2023/10/05 03:29:00;;;;;;;11.55;6.32;;;;;;;;;;2072610;28;20042;-56
2023/10/05 03:30:06;;;;;;;10.95;6.70;;;;;;;;;;2064411;28;20054;-56
2023/10/05 03:31:31;;;;;;;10.98;6.55;;;;;;;;;;2073190;28;20490;-56
2023/10/05 03:32:35;;;;;;;11.65;6.78;;;;;;;;;;2072830;28;20046;-57
2023/10/05 03:33:36;;;;;;;9.75;5.82;;;;;;;;;;2065223;28;20054;-56
2023/10/05 03:34:39;;;;;;;11.27;6.50;;;;;;;;;;2065198;28;20042;-56
2023/10/05 03:35:45;;;;;;;12.23;6.85;;;;;;;;;;2073784;28;20049;-56
2023/10/05 03:36:50;;;;;;;13.02;6.85;;;;;;;;;;2082747;28;20390;-56
2023/10/05 03:37:52;;;;;;;11.77;6.50;;;;;;;;;;2074577;28;20042;-56
2023/10/05 03:38:56;;;;;;;11.18;7.40;;;;;;;;;;2066345;28;20053;-56
2023/10/05 03:41:08;;;;;;;13.95;6.78;;;;;;;;;;2075041;28;20034;-56
2023/10/05 03:42:13;;;;;;;11.45;6.78;;;;;;;;;;2074217;28;20053;-56
2023/10/05 03:43:14;;;;;;;14.35;7.25;;;;;;;;;;2067162;28;20038;-56
2023/10/05 03:44:17;;;;;;;10.18;6.72;;;;;;;;;;2074255;28;20462;-56
2023/10/05 03:45:22;;;;;;;11.18;7.38;;;;;;;;;;2073912;28;20050;-56
2023/10/05 03:46:26;;;;;;;18.02;7.40;;;;;;;;;;2074714;28;20482;-56
2023/10/05 03:47:26;;;;;;;16.83;7.25;;;;;;;;;;2066391;28;20053;-56
2023/10/05 03:48:27;;;;;;;16.70;8.25;;;;;;;;;;2058219;28;20537;-56
2023/10/05 03:49:28;;;;;;;16.73;7.32;;;;;;;;;;2073695;28;20049;-56
2023/10/05 03:50:29;;;;;;;12.45;7.32;;;;;;;;;;2073767;28;20429;-56
2023/10/05 03:51:30;;;;;;;15.88;7.70;;;;;;;;;;2074246;28;20049;-56
2023/10/05 03:52:32;;;;;;;12.40;7.25;;;;;;;;;;2066850;28;20034;-60
2023/10/05 03:53:33;;;;;;;13.05;7.65;;;;;;;;;;2066158;28;20053;-55
2023/10/05 03:54:34;;;;;;;14.00;7.50;;;;;;;;;;2065945;28;20414;-56
2023/10/05 03:55:35;;;;;;;12.88;7.18;;;;;;;;;;2066424;28;20038;-56
2023/10/05 03:56:36;;;;;;;17.80;8.10;;;;;;;;;;2065886;28;20415;-56
2023/10/05 03:57:37;;;;;;;10.60;7.13;;;;;;;;;;2066114;28;20042;-56
2023/10/05 03:58:39;;;;;;;12.85;7.68;;;;;;;;;;2066398;28;20038;-56
2023/10/05 03:59:40;;;;;;;11.32;7.32;;;;;;;;;;2066107;28;20486;-56
2023/10/05 04:00:41;;;;;;;13.27;8.00;;;;;;;;;;2073742;28;20045;-56
2023/10/05 04:01:48;;;;;;;12.32;7.40;;;;;;;;;;2066503;28;20073;-56
2023/10/05 04:02:50;;;;;;;10.70;7.38;;;;;;;;;;2068996;28;20041;-56
2023/10/05 04:03:51;;;;;;;13.20;7.93;;;;;;;;;;2076247;28;20037;-57
2023/10/05 04:04:52;;;;;;;14.57;8.18;;;;;;;;;;2075814;28;20049;-60
2023/10/05 04:05:53;;;;;;;14.80;7.97;;;;;;;;;;2076604;28;20033;-65
2023/10/05 04:06:54;;;;;;;13.32;8.55;;;;;;;;;;2075813;28;20098;-56
2023/10/05 04:08:10;;;;;;;12.93;8.55;;;;;;;;;;2067384;28;20042;-56
2023/10/05 04:09:15;;;;;;;14.48;6.97;;;;;;;;;;2075041;28;20040;-56
2023/10/05 04:10:21;;;;;;;15.10;8.40;;;;;;;;;;2075061;28;20030;-56
2023/10/05 04:11:21;;;;;;;12.27;8.02;;;;;;;;;;2074942;28;20060;-56
2023/10/05 04:12:22;;;;;;;14.57;8.43;;;;;;;;;;2075045;28;20128;-57
2023/10/05 04:13:24;;;;;;;19.58;9.32;;;;;;;;;;2075064;28;20050;-56
2023/10/05 04:14:26;;;;;;;13.68;8.38;;;;;;;;;;2075415;28;20037;-56
2023/10/05 04:15:29;;;;;;;14.30;9.30;;;;;;;;;;2074786;28;20042;-56
2023/10/05 04:16:33;;;;;;;14.50;8.65;;;;;;;;;;2074993;28;20053;-56
2023/10/05 04:17:34;;;;;;;14.82;8.95;;;;;;;;;;2075242;28;20026;-56
2023/10/05 04:18:35;;;;;;;16.35;9.55;;;;;;;;;;2075072;28;20041;-56
2023/10/05 04:19:35;;;;;;;13.80;8.52;;;;;;;;;;2075214;28;20466;-56
2023/10/05 04:20:36;;;;;;;16.05;8.60;;;;;;;;;;2075177;28;20030;-56
2023/10/05 04:21:37;;;;;;;15.48;8.95;;;;;;;;;;2075384;28;20033;-56
2023/10/05 04:22:38;;;;;;;13.52;8.45;;;;;;;;;;2075019;28;20060;-56
2023/10/05 04:23:40;;;;;;;15.70;8.95;;;;;;;;;;2074875;28;20397;-56
2023/10/05 04:24:41;;;;;;;13.18;8.65;;;;;;;;;;2074720;28;20041;-55
2023/10/05 04:25:44;;;;;;;16.20;8.40;;;;;;;;;;2075163;28;20029;-55
2023/10/05 04:26:45;;;;;;;17.13;9.13;;;;;;;;;;2075135;28;20042;-55
2023/10/05 04:27:49;;;;;;;13.75;9.45;;;;;;;;;;2074878;28;20052;-59
2023/10/05 04:28:52;;;;;;;17.50;8.50;;;;;;;;;;2074959;28;20038;-56
2023/10/05 04:29:53;;;;;;;17.00;8.65;;;;;;;;;;2074917;28;20034;-56
2023/10/05 04:30:54;;;;;;;16.70;8.02;;;;;;;;;;2075110;28;20049;-56
2023/10/05 04:31:55;;;;;;;15.07;8.93;;;;;;;;;;2074920;28;20049;-57
2023/10/05 04:32:57;;;;;;;13.98;8.18;;;;;;;;;;2075155;28;20030;-56
2023/10/05 04:34:00;;;;;;;15.65;8.10;;;;;;;;;;2074691;28;20049;-56
2023/10/05 04:35:10;;;;;;;15.63;9.80;;;;;;;;;;2074976;28;20037;-56
2023/10/05 04:36:11;;;;;;;14.27;7.90;;;;;;;;;;2075228;28;20398;-56
2023/10/05 04:37:12;;;;;;;13.95;8.10;;;;;;;;;;2075120;28;20038;-56
2023/10/05 04:38:12;;;;;;;12.85;8.30;;;;;;;;;;2074826;28;20042;-56
2023/10/05 04:39:21;;;;;;;13.43;8.07;;;;;;;;;;2074770;28;20046;-56
2023/10/05 04:40:24;;;;;;;10.65;7.70;;;;;;;;;;2074567;28;20117;-56
2023/10/05 04:41:28;;;;;;;11.25;8.60;;;;;;;;;;2074231;28;20033;-56
2023/10/05 04:42:29;;;;;;;13.55;8.35;;;;;;;;;;2074012;28;20053;-56
2023/10/05 04:43:30;;;;;;;14.30;8.55;;;;;;;;;;2074566;28;20049;-56
2023/10/05 04:44:31;;;;;;;12.68;8.50;;;;;;;;;;2074688;28;20040;-56
2023/10/05 04:45:31;;;;;;;16.55;8.68;;;;;;;;;;2074288;28;20512;-56
2023/10/05 04:46:32;;;;;;;15.88;8.40;;;;;;;;;;2074888;28;20492;-56
2023/10/05 04:47:33;;;;;;;16.45;8.57;;;;;;;;;;2073922;28;20046;-57
2023/10/05 04:48:34;;;;;;;16.60;8.18;;;;;;;;;;2074789;28;20054;-56
2023/10/05 04:49:36;;;;;;;13.48;8.30;;;;;;;;;;2074932;28;20429;-56
2023/10/05 04:50:36;;;;;;;14.52;8.98;;;;;;;;;;2074755;28;20041;-56
2023/10/05 04:51:39;;;;;;;12.93;8.43;;;;;;;;;;2074808;28;20038;-56
2023/10/05 04:52:40;;;;;;;14.70;8.10;;;;;;;;;;2074834;28;20552;-56
2023/10/05 04:53:42;;;;;;;13.80;9.07;;;;;;;;;;2074148;28;20084;-55
2023/10/05 04:54:44;;;;;;;13.85;8.63;;;;;;;;;;2074902;28;20053;-56
2023/10/05 04:55:46;;;;;;;12.32;8.20;;;;;;;;;;2074885;28;20037;-56
2023/10/05 04:57:22;;;;;;;13.10;7.80;;;;;;;;;;2074889;28;20026;-56
2023/10/05 04:59:23;;;;;;;13.65;8.70;;;;;;;;;;2074401;28;20049;-56
2023/10/05 04:59:48;;;;;;;13.93;8.25;;;;;;;;;;2061499;28;20052;-56
2023/10/05 05:00:54;;;;;;;12.15;8.10;;;;;;;;;;2074880;28;20141;-56
2023/10/05 05:02:00;;;;;;;12.82;8.52;;;;;;;;;;2075029;28;20037;-56
2023/10/05 05:04:27;;;;;;;13.18;8.40;;;;;;;;;;2075019;28;20041;-56
2023/10/05 05:05:40;;;;;;;13.88;8.63;;;;;;;;;;2075048;28;20037;-56
2023/10/05 05:06:41;;;;;;;12.88;8.18;;;;;;;;;;2074306;28;20041;-56
2023/10/05 05:07:41;;;;;;;14.30;9.40;;;;;;;;;;2074075;28;20045;-56
2023/10/05 05:08:43;;;;;;;15.35;8.40;;;;;;;;;;2074064;28;20038;-55
2023/10/05 05:09:44;;;;;;;13.68;7.55;;;;;;;;;;2074646;28;20033;-56
2023/10/05 05:10:45;;;;;;;13.65;8.45;;;;;;;;;;2074586;28;20045;-56
2023/10/05 05:11:47;;;;;;;16.10;9.27;;;;;;;;;;2074891;28;20037;-56
2023/10/05 05:12:49;;;;;;;14.63;9.63;;;;;;;;;;2074960;28;20050;-56
2023/10/05 05:13:51;;;;;;;14.45;8.02;;;;;;;;;;2074690;28;20038;-56
2023/10/05 05:14:54;;;;;;;15.07;8.43;;;;;;;;;;2074449;28;20382;-56
2023/10/05 05:15:55;;;;;;;15.38;9.05;;;;;;;;;;2074823;28;20056;-56
2023/10/05 05:16:58;;;;;;;15.07;9.65;;;;;;;;;;2073649;28;20054;-56
2023/10/05 05:17:59;;;;;;;14.35;9.10;;;;;;;;;;2073400;28;20049;-56
2023/10/05 05:18:59;;;;;;;15.73;9.05;;;;;;;;;;2073695;28;20045;-56
2023/10/05 05:20:10;;;;;;;15.27;8.90;;;;;;;;;;2073479;28;20053;-56
2023/10/05 05:21:11;;;;;;;14.13;8.95;;;;;;;;;;2073715;28;20534;-56
2023/10/05 05:22:12;;;;;;;15.35;8.82;;;;;;;;;;2073814;28;20072;-56
2023/10/05 05:23:13;;;;;;;14.73;9.05;;;;;;;;;;2073720;28;20172;-56
2023/10/05 05:24:13;;;;;;;15.77;9.00;;;;;;;;;;2074141;28;20474;-56
2023/10/05 05:25:17;;;;;;;12.63;8.13;;;;;;;;;;2074594;28;20050;-56
2023/10/05 05:26:18;;;;;;;13.90;8.00;;;;;;;;;;2074136;28;20045;-56
2023/10/05 05:28:19;;;;;;;13.82;8.57;;;;;;;;;;2074808;28;20057;-56
2023/10/05 05:29:20;;;;;;;13.45;8.45;;;;;;;;;;2074709;28;20048;-56
2023/10/05 05:30:24;;;;;;;12.38;7.65;;;;;;;;;;2074170;28;20050;-56
2023/10/05 05:31:24;;;;;;;15.27;7.95;;;;;;;;;;2074447;28;20045;-57
2023/10/05 05:32:25;;;;;;;11.77;7.93;;;;;;;;;;2074140;28;20053;-55
2023/10/05 05:33:26;;;;;;;12.13;7.68;;;;;;;;;;2074544;28;20103;-56
2023/10/05 05:34:27;;;;;;;13.57;8.05;;;;;;;;;;2074489;28;20046;-55
2023/10/05 05:35:28;;;;;;;13.18;7.70;;;;;;;;;;2074459;28;20097;-55
2023/10/05 05:36:29;;;;;;;14.10;8.15;;;;;;;;;;2074095;28;20054;-55
2023/10/05 05:37:29;;;;;;;13.57;8.30;;;;;;;;;;2074622;28;20519;-55
2023/10/05 05:38:30;;;;;;;15.68;7.55;;;;;;;;;;2074513;28;20073;-56
2023/10/05 05:39:38;;;;;;;14.85;7.65;;;;;;;;;;2073497;28;20560;-55
2023/10/05 05:40:39;;;;;;;12.80;7.87;;;;;;;;;;2074132;28;20030;-56
2023/10/05 05:41:40;;;;;;;12.02;7.90;;;;;;;;;;2074218;28;20280;-56
2023/10/05 05:42:43;;;;;;;9.88;7.20;;;;;;;;;;2073835;28;20049;-56
2023/10/05 05:43:43;;;;;;;13.02;6.63;;;;;;;;;;2074326;28;20053;-55
2023/10/05 05:44:44;;;;;;;12.52;6.90;;;;;;;;;;2074184;28;20046;-56
2023/10/05 05:45:45;;;;;;;11.55;6.32;;;;;;;;;;2074387;28;20070;-55
2023/10/05 05:46:45;;;;;;;13.02;6.28;;;;;;;;;;2074743;28;20045;-55
2023/10/05 05:47:47;;;;;;;10.27;6.28;;;;;;;;;;2074404;28;20033;-56
2023/10/05 05:48:52;;;;;;;8.55;5.28;;;;;;;;;;2074484;28;20030;-56
2023/10/05 05:49:53;;;;;;;9.68;5.85;;;;;;;;;;2074395;28;20033;-56
2023/10/05 05:50:54;;;;;;;12.90;5.97;;;;;;;;;;2074264;28;20044;-55
2023/10/05 05:51:58;;;;;;;8.25;5.22;;;;;;;;;;2074482;28;20044;-55
2023/10/05 05:52:58;;;;;;;10.60;5.10;;;;;;;;;;2074316;28;20045;-55
2023/10/05 05:54:03;;;;;;;8.07;5.38;;;;;;;;;;2074095;28;20493;-56
2023/10/05 05:55:10;;;;;;;9.50;5.70;;;;;;;;;;2074691;28;20038;-56
2023/10/05 05:56:19;;;;;;;12.48;6.32;;;;;;;;;;2074640;28;20553;-56
2023/10/05 05:57:20;;;;;;;8.90;5.32;;;;;;;;;;2074402;28;20036;-55
2023/10/05 05:58:21;;;;;;;9.27;6.03;;;;;;;;;;2074167;28;20478;-55
2023/10/05 05:59:22;;;;;;;11.13;6.20;;;;;;;;;;2074459;28;20084;-56
2023/10/05 06:00:23;;;;;;;9.23;5.72;;;;;;;;;;2074269;28;20038;-55
2023/10/05 06:01:23;;;;;;;12.23;6.30;;;;;;;;;;2074180;28;20041;-56
2023/10/05 06:02:24;;;;;;;10.38;5.90;;;;;;;;;;2073772;28;20036;-56
2023/10/05 06:03:25;;;;;;;11.48;5.85;;;;;;;;;;2074393;28;20402;-55
2023/10/05 06:04:26;;;;;;;9.60;5.43;;;;;;;;;;2074014;28;20521;-55
2023/10/05 06:05:26;;;;;;;11.73;5.60;;;;;;;;;;2074227;28;20046;-55
2023/10/05 06:06:27;;;;;;;11.45;6.32;;;;;;;;;;2073686;28;20081;-55
2023/10/05 06:07:28;;;;;;;11.85;6.40;;;;;;;;;;2074246;28;20048;-56
2023/10/05 06:08:29;;;;;;;10.60;5.93;;;;;;;;;;2073957;28;20045;-56
2023/10/05 06:09:33;;;;;;;12.10;6.88;;;;;;;;;;2065647;28;20184;-56
2023/10/05 06:10:35;;;;;;;12.90;6.30;;;;;;;;;;2073527;28;20057;-56
2023/10/05 06:11:36;;;;;;;15.48;6.35;;;;;;;;;;2074289;28;20034;-56
2023/10/05 06:12:36;;;;;;;12.43;6.20;;;;;;;;;;2074027;28;20045;-56
2023/10/05 06:13:37;;;;;;;10.02;5.95;;;;;;;;;;2074406;28;20057;-55
2023/10/05 06:14:40;;;;;;;12.27;5.82;;;;;;;;;;2073761;28;20049;-57
2023/10/05 06:15:42;;;;;;;12.70;5.63;;;;;;;;;;2073694;28;20118;-56
2023/10/05 06:16:42;;;;;;;11.43;6.70;;;;;;;;;;2073635;28;20048;-55
2023/10/05 06:17:46;;;;;;;12.65;6.65;;;;;;;;;;2073805;28;20401;-56
2023/10/05 06:18:47;;;;;;;10.13;5.50;;;;;;;;;;2074038;28;20038;-56
2023/10/05 06:19:48;;;;;;;8.50;5.03;;;;;;;;;;2074432;28;20038;-56
2023/10/05 06:20:48;;;;;;;9.32;4.95;;;;;;;;;;2074025;28;20061;-56
2023/10/05 06:21:49;;;;;;;10.85;5.82;;;;;;;;;;2074032;28;20496;-56
2023/10/05 06:22:50;;;;;;;9.63;5.05;;;;;;;;;;2073848;28;20474;-56
2023/10/05 06:23:51;;;;;;;9.20;5.57;;;;;;;;;;2074264;28;20046;-56
2023/10/05 06:24:52;;;;;;;10.15;4.88;;;;;;;;;;2073482;28;20049;-55
2023/10/05 06:25:53;;;;;;;15.63;5.68;;;;;;;;;;2073553;28;20034;-56
2023/10/05 06:26:54;;;;;;;9.65;4.78;;;;;;;;;;2074122;28;20509;-56
2023/10/05 06:27:54;;;;;;;10.40;4.47;;;;;;;;;;2074137;28;20042;-56